createdAt,value
2023-01-06T00:00:03.646Z,9.667910
2023-01-06T00:01:03.445Z,9.668007
2023-01-06T00:02:04.223Z,9.667963
2023-01-06T00:03:03.495Z,9.667933
2023-01-06T00:04:03.674Z,9.667918
2023-01-06T00:05:03.455Z,9.667955
2023-01-06T00:06:03.570Z,9.667944
2023-01-06T00:07:03.408Z,9.667907
2023-01-06T00:08:03.413Z,9.667927
2023-01-06T00:09:03.429Z,9.667933
2023-01-06T00:10:03.405Z,9.667943
2023-01-06T00:11:03.774Z,9.667964
2023-01-06T00:12:03.549Z,9.667966
2023-01-06T00:13:03.370Z,9.667862
2023-01-06T00:14:03.386Z,9.667905
2023-01-06T00:15:03.496Z,9.667917
2023-01-06T00:16:03.350Z,9.667928
2023-01-06T00:17:03.354Z,9.667977
2023-01-06T00:18:03.429Z,9.667967
2023-01-06T00:19:37.224Z,9.667894
2023-01-06T00:20:03.368Z,9.667885
2023-01-06T00:21:03.347Z,9.667857
2023-01-06T00:22:03.316Z,9.667875
2023-01-06T00:23:03.324Z,9.667922
2023-01-06T00:24:03.371Z,9.668011
2023-01-06T00:25:03.292Z,9.668013
2023-01-06T00:26:03.331Z,9.668031
2023-01-06T00:27:03.344Z,9.667978
2023-01-06T00:28:03.302Z,9.667916
2023-01-06T00:29:03.267Z,9.668022
2023-01-06T00:30:03.298Z,9.668007
2023-01-06T00:31:03.341Z,9.667980
2023-01-06T00:32:03.308Z,9.667973
2023-01-06T00:33:03.262Z,9.668001
2023-01-06T00:34:03.215Z,9.667977
2023-01-06T00:35:03.218Z,9.667996
2023-01-06T00:36:03.190Z,9.667985
2023-01-06T00:37:03.181Z,9.667974
2023-01-06T00:38:03.211Z,9.667954
2023-01-06T00:39:03.273Z,9.667970
2023-01-06T00:40:03.332Z,9.667946
2023-01-06T00:41:03.221Z,9.667941
2023-01-06T00:42:03.153Z,9.667912
2023-01-06T00:43:03.128Z,9.667905
2023-01-06T00:44:03.160Z,9.667989
2023-01-06T00:45:03.135Z,9.667987
2023-01-06T00:46:03.201Z,9.667969
2023-01-06T00:47:03.196Z,9.667989
2023-01-06T00:48:03.123Z,9.668015
2023-01-06T00:49:05.581Z,9.667972
2023-01-06T00:50:04.095Z,9.668003
2023-01-06T00:51:03.081Z,9.668011
2023-01-06T00:52:03.085Z,9.668012
2023-01-06T00:53:03.102Z,9.667991
2023-01-06T00:54:03.049Z,9.668035
2023-01-06T00:55:03.063Z,9.668008
2023-01-06T00:56:03.041Z,9.668041
2023-01-06T00:57:03.044Z,9.668034
2023-01-06T00:58:03.034Z,9.668034
2023-01-06T00:59:03.025Z,9.667996
2023-01-06T01:00:03.009Z,9.668026
2023-01-06T01:01:02.993Z,9.667987
2023-01-06T01:02:03.178Z,9.667992
2023-01-06T01:03:03.115Z,9.668030
2023-01-06T01:04:02.973Z,9.668046
2023-01-06T01:05:02.979Z,9.668013
2023-01-06T01:06:02.998Z,9.668055
2023-01-06T01:07:02.956Z,9.668070
2023-01-06T01:08:02.929Z,9.668088
2023-01-06T01:09:02.918Z,9.668100
2023-01-06T01:10:02.947Z,9.668041
2023-01-06T01:11:03.351Z,9.668069
2023-01-06T01:12:03.949Z,9.668053
2023-01-06T01:13:02.902Z,9.668040
2023-01-06T01:14:02.891Z,9.668070
2023-01-06T01:15:02.888Z,9.667949
2023-01-06T01:16:02.970Z,9.668019
2023-01-06T01:17:02.930Z,9.668128
2023-01-06T01:18:02.865Z,9.667977
2023-01-06T01:19:02.946Z,9.667967
2023-01-06T01:20:02.850Z,9.668107
2023-01-06T01:21:02.857Z,9.668119
2023-01-06T01:22:02.836Z,9.668200
2023-01-06T01:23:02.849Z,9.667983
2023-01-06T01:24:02.835Z,9.667964
2023-01-06T01:25:02.799Z,9.667847
2023-01-06T01:26:02.803Z,9.668071
2023-01-06T01:27:02.788Z,9.668069
2023-01-06T01:28:02.797Z,9.668036
2023-01-06T01:29:02.836Z,9.667995
2023-01-06T01:30:02.803Z,9.667992
2023-01-06T01:31:02.808Z,9.668007
2023-01-06T01:32:02.767Z,9.668077
2023-01-06T01:33:02.833Z,9.668033
2023-01-06T01:34:02.761Z,9.667987
2023-01-06T01:35:02.805Z,9.667972
2023-01-06T01:36:02.729Z,9.668080
2023-01-06T01:37:02.695Z,9.668069
2023-01-06T01:38:02.719Z,9.668007
2023-01-06T01:39:02.755Z,9.668030
2023-01-06T01:40:02.703Z,9.668015
2023-01-06T01:41:02.687Z,9.668031
2023-01-06T01:42:02.683Z,9.667961
2023-01-06T01:43:02.678Z,9.667959
2023-01-06T01:44:02.679Z,9.667985
2023-01-06T01:45:02.768Z,9.667997
2023-01-06T01:46:02.725Z,9.667984
2023-01-06T01:47:02.646Z,9.668040
2023-01-06T01:48:02.661Z,9.667994
2023-01-06T01:49:02.665Z,9.667975
2023-01-06T01:50:02.746Z,9.668043
2023-01-06T01:51:02.708Z,9.668025
2023-01-06T01:52:02.605Z,9.668010
2023-01-06T01:53:02.592Z,9.667979
2023-01-06T01:54:02.609Z,9.668007
2023-01-06T01:55:02.603Z,9.668034
2023-01-06T01:56:02.554Z,9.668010
2023-01-06T01:57:02.577Z,9.667956
2023-01-06T01:58:02.571Z,9.667965
2023-01-06T01:59:02.543Z,9.667970
2023-01-06T02:00:02.554Z,9.667969
2023-01-06T02:01:02.561Z,9.668094
2023-01-06T02:02:02.656Z,9.668037
2023-01-06T02:03:02.549Z,9.668006
2023-01-06T02:04:02.522Z,9.667999
2023-01-06T02:05:02.536Z,9.667963
2023-01-06T02:06:02.549Z,9.668023
2023-01-06T02:07:02.519Z,9.668007
2023-01-06T02:08:02.497Z,9.668044
2023-01-06T02:09:02.468Z,9.668014
2023-01-06T02:10:02.480Z,9.668071
2023-01-06T02:11:02.463Z,9.667950
2023-01-06T02:12:02.565Z,9.667960
2023-01-06T02:13:02.495Z,9.668002
2023-01-06T02:14:02.466Z,9.667995
2023-01-06T02:15:02.415Z,9.668002
2023-01-06T02:16:02.441Z,9.668015
2023-01-06T02:17:02.424Z,9.668009
2023-01-06T02:18:02.497Z,9.667986
2023-01-06T02:19:34.774Z,9.668010
2023-01-06T02:20:34.315Z,9.668000
2023-01-06T02:21:02.388Z,9.667977
2023-01-06T02:22:02.461Z,9.668044
2023-01-06T02:23:02.454Z,9.668025
2023-01-06T02:24:02.361Z,9.668067
2023-01-06T02:25:02.377Z,9.668076
2023-01-06T02:26:02.350Z,9.668023
2023-01-06T02:27:02.332Z,9.668032
2023-01-06T02:28:34.262Z,9.667984
2023-01-06T02:29:02.416Z,9.667974
2023-01-06T02:30:02.427Z,9.668024
2023-01-06T02:31:02.361Z,9.667974
2023-01-06T02:32:02.278Z,9.668000
2023-01-06T02:33:02.298Z,9.667964
2023-01-06T02:34:02.296Z,9.668051
2023-01-06T02:35:02.296Z,9.667984
2023-01-06T02:36:02.258Z,9.667976
2023-01-06T02:37:02.287Z,9.667986
2023-01-06T02:38:02.219Z,9.668015
2023-01-06T02:39:02.323Z,9.668009
2023-01-06T02:40:03.195Z,9.668030
2023-01-06T02:41:02.269Z,9.668057
2023-01-06T02:42:02.755Z,9.668056
2023-01-06T02:43:34.111Z,9.668044
2023-01-06T02:44:02.274Z,9.668009
2023-01-06T02:45:02.342Z,9.667990
2023-01-06T02:46:02.292Z,9.667965
2023-01-06T02:47:02.196Z,9.667955
2023-01-06T02:48:02.189Z,9.668014
2023-01-06T02:49:02.271Z,9.668110
2023-01-06T02:50:02.186Z,9.668075
2023-01-06T02:51:02.148Z,9.667952
2023-01-06T02:52:02.168Z,9.668005
2023-01-06T02:53:02.100Z,9.668055
2023-01-06T02:54:02.142Z,9.668015
2023-01-06T02:55:02.191Z,9.667978
2023-01-06T02:56:02.105Z,9.667981
2023-01-06T02:57:02.113Z,9.667995
2023-01-06T02:58:02.107Z,9.667991
2023-01-06T02:59:02.083Z,9.667974
2023-01-06T03:00:02.050Z,9.668016
2023-01-06T03:01:02.071Z,9.668006
2023-01-06T03:02:02.175Z,9.667999
2023-01-06T03:03:02.084Z,9.668026
2023-01-06T03:04:02.046Z,9.668036
2023-01-06T03:05:02.101Z,9.667966
2023-01-06T03:06:02.124Z,9.667914
2023-01-06T03:07:02.055Z,9.667901
2023-01-06T03:08:02.027Z,9.667968
2023-01-06T03:09:01.993Z,9.668034
2023-01-06T03:10:01.993Z,9.667958
2023-01-06T03:11:02.119Z,9.667924
2023-01-06T03:12:01.984Z,9.667893
2023-01-06T03:13:01.968Z,9.667974
2023-01-06T03:14:01.980Z,9.668004
2023-01-06T03:15:01.966Z,9.668006
2023-01-06T03:16:01.999Z,9.667967
2023-01-06T03:17:01.953Z,9.668006
2023-01-06T03:18:01.950Z,9.667991
2023-01-06T03:19:01.925Z,9.667999
2023-01-06T03:20:01.967Z,9.667945
2023-01-06T03:21:01.904Z,9.667922
2023-01-06T03:22:01.904Z,9.667938
2023-01-06T03:23:01.902Z,9.667856
2023-01-06T03:24:01.908Z,9.668004
2023-01-06T03:25:34.269Z,9.667978
2023-01-06T03:26:01.844Z,9.667973
2023-01-06T03:27:02.941Z,9.668016
2023-01-06T03:28:01.926Z,9.667993
2023-01-06T03:29:01.909Z,9.667974
2023-01-06T03:30:01.847Z,9.667999
2023-01-06T03:31:01.889Z,9.668023
2023-01-06T03:32:01.842Z,9.667947
2023-01-06T03:33:01.843Z,9.667998
2023-01-06T03:34:01.811Z,9.667957
2023-01-06T03:35:01.804Z,9.667986
2023-01-06T03:36:01.789Z,9.668026
2023-01-06T03:37:01.796Z,9.668022
2023-01-06T03:38:01.784Z,9.667980
2023-01-06T03:39:01.768Z,9.668014
2023-01-06T03:40:01.778Z,9.667996
2023-01-06T03:41:01.729Z,9.667981
2023-01-06T03:42:01.775Z,9.667995
2023-01-06T03:43:01.803Z,9.668000
2023-01-06T03:44:01.738Z,9.668011
2023-01-06T03:45:01.733Z,9.668049
2023-01-06T03:46:01.727Z,9.667990
2023-01-06T03:47:01.711Z,9.668022
2023-01-06T04:22:16.617Z,9.668038
2023-01-06T04:23:16.589Z,9.668020
2023-01-06T04:24:16.565Z,9.668033
2023-01-06T04:25:16.564Z,9.668066
2023-01-06T04:26:16.544Z,9.668065
2023-01-06T04:27:16.551Z,9.668072
2023-01-06T04:28:16.540Z,9.668024
2023-01-06T04:29:16.612Z,9.668020
2023-01-06T04:30:16.520Z,9.668057
2023-01-06T04:31:16.581Z,9.668035
2023-01-06T04:32:16.508Z,9.668037
2023-01-06T04:33:16.487Z,9.668077
2023-01-06T04:34:17.508Z,9.668091
2023-01-06T04:35:16.544Z,9.668065
2023-01-06T04:36:16.508Z,9.668026
2023-01-06T04:37:16.458Z,9.668028
2023-01-06T04:38:16.490Z,9.668025
2023-01-06T04:39:16.455Z,9.667988
2023-01-06T04:40:16.476Z,9.668003
2023-01-06T04:41:17.261Z,9.668016
2023-01-06T04:42:16.431Z,9.668000
2023-01-06T04:43:16.460Z,9.668001
2023-01-06T04:44:16.460Z,9.668015
2023-01-06T04:45:16.426Z,9.668025
2023-01-06T04:46:16.889Z,9.667999
2023-01-06T04:47:16.384Z,9.668017
2023-01-06T04:48:16.376Z,9.668018
2023-01-06T04:49:16.370Z,9.667994
2023-01-06T04:50:16.375Z,9.668021
2023-01-06T04:51:16.521Z,9.667996
2023-01-06T04:52:16.360Z,9.668027
2023-01-06T04:53:16.332Z,9.668001
2023-01-06T04:54:16.341Z,9.668057
2023-01-06T04:55:17.361Z,9.668050
2023-01-06T04:56:16.316Z,9.668000
2023-01-06T04:57:16.337Z,9.668020
2023-01-06T04:58:16.294Z,9.668038
2023-01-06T04:59:16.291Z,9.668053
2023-01-06T05:00:16.349Z,9.668051
2023-01-06T05:01:16.375Z,9.668015
2023-01-06T05:02:16.343Z,9.668025
2023-01-06T05:03:16.285Z,9.668016
2023-01-06T05:04:16.308Z,9.668025
2023-01-06T05:05:16.348Z,9.668020
2023-01-06T05:06:16.234Z,9.668066
2023-01-06T05:07:16.316Z,9.668064
2023-01-06T05:08:17.245Z,9.668044
2023-01-06T05:09:16.227Z,9.668042
2023-01-06T05:10:16.221Z,9.668069
2023-01-06T05:11:16.223Z,9.668097
2023-01-06T05:12:16.171Z,9.668079
2023-01-06T05:13:16.189Z,9.668042
2023-01-06T05:14:48.115Z,9.668031
2023-01-06T05:15:16.150Z,9.668024
2023-01-06T05:16:17.198Z,9.668052
2023-01-06T05:17:16.210Z,9.668038
2023-01-06T05:18:16.220Z,9.668012
2023-01-06T05:19:16.164Z,9.668045
2023-01-06T05:20:16.150Z,9.667994
2023-01-06T05:21:16.145Z,9.667982
2023-01-06T05:22:16.144Z,9.667991
2023-01-06T05:23:16.149Z,9.667981
2023-01-06T05:24:16.159Z,9.667974
2023-01-06T05:25:16.094Z,9.668008
2023-01-06T05:26:16.099Z,9.668007
2023-01-06T05:27:16.113Z,9.668009
2023-01-06T05:28:16.078Z,9.668029
2023-01-06T05:29:16.069Z,9.668002
2023-01-06T05:30:16.055Z,9.668014
2023-01-06T05:31:16.130Z,9.668002
2023-01-06T05:32:16.087Z,9.667966
2023-01-06T05:33:16.040Z,9.668011
2023-01-06T05:34:16.052Z,9.667963
2023-01-06T05:35:16.023Z,9.667950
2023-01-06T05:36:16.008Z,9.667953
2023-01-06T05:37:16.122Z,9.667996
2023-01-06T05:38:16.076Z,9.667999
2023-01-06T05:39:16.072Z,9.667925
2023-01-06T05:40:15.976Z,9.667930
2023-01-06T05:41:15.977Z,9.667971
2023-01-06T05:42:15.991Z,9.667996
2023-01-06T05:43:16.116Z,9.668033
2023-01-06T05:44:16.015Z,9.667951
2023-01-06T05:45:15.955Z,9.668038
2023-01-06T05:46:15.973Z,9.667994
2023-01-06T05:47:15.955Z,9.667928
2023-01-06T05:48:15.916Z,9.667984
2023-01-06T05:49:15.935Z,9.667940
2023-01-06T05:50:15.938Z,9.667935
2023-01-06T05:51:16.944Z,9.667965
2023-01-06T05:52:15.917Z,9.667929
2023-01-06T05:53:15.925Z,9.667942
2023-01-06T05:54:16.777Z,9.667937
2023-01-06T05:55:15.862Z,9.667950
2023-01-06T05:56:48.802Z,9.667970
2023-01-06T05:57:15.882Z,9.667984
2023-01-06T05:58:15.850Z,9.668030
2023-01-06T05:59:16.895Z,9.667983
2023-01-06T06:00:15.831Z,9.667908
2023-01-06T06:01:16.660Z,9.667960
2023-01-06T06:02:16.850Z,9.667870
2023-01-06T06:03:15.986Z,9.667955
2023-01-06T06:04:15.853Z,9.667974
2023-01-06T06:05:15.800Z,9.667998
2023-01-06T06:12:14.827Z,9.668126
2023-01-06T06:13:14.912Z,9.668080
2023-01-06T06:14:17.156Z,9.668029
2023-01-06T06:15:14.874Z,9.668107
2023-01-06T06:16:14.864Z,9.668062
2023-01-06T06:17:14.778Z,9.668049
2023-01-06T06:18:14.753Z,9.668032
2023-01-06T06:19:14.788Z,9.667993
2023-01-06T06:20:14.742Z,9.668020
2023-01-06T06:21:14.760Z,9.668015
2023-01-06T06:22:14.717Z,9.668010
2023-01-06T06:23:14.715Z,9.668018
2023-01-06T06:24:14.752Z,9.668053
2023-01-06T06:25:14.692Z,9.668077
2023-01-06T06:26:14.707Z,9.668077
2023-01-06T06:27:14.757Z,9.668086
2023-01-06T06:28:14.688Z,9.668077
2023-01-06T06:29:14.664Z,9.668077
2023-01-06T06:30:14.661Z,9.668019
2023-01-06T06:31:14.694Z,9.668023
2023-01-06T06:32:14.647Z,9.668037
2023-01-06T06:33:14.628Z,9.668027
2023-01-06T06:34:14.618Z,9.668021
2023-01-06T06:35:14.642Z,9.668045
2023-01-06T06:36:46.548Z,9.668052
2023-01-06T06:37:14.616Z,9.668003
2023-01-06T06:38:14.680Z,9.668049
2023-01-06T06:39:15.603Z,9.667966
2023-01-06T06:40:14.597Z,9.667993
2023-01-06T06:41:14.583Z,9.668055
2023-01-06T06:42:14.731Z,9.668039
2023-01-06T06:43:14.632Z,9.668051
2023-01-06T06:44:14.546Z,9.668062
2023-01-06T06:45:14.547Z,9.668047
2023-01-06T06:46:14.530Z,9.668063
2023-01-06T06:47:14.573Z,9.668038
2023-01-06T06:48:14.520Z,9.668020
2023-01-06T06:49:14.512Z,9.668030
2023-01-06T06:50:14.507Z,9.668027
2023-01-06T06:51:14.527Z,9.668044
2023-01-06T06:52:14.529Z,9.668054
2023-01-06T06:53:14.475Z,9.668033
2023-01-06T06:54:14.512Z,9.667993
2023-01-06T06:55:14.462Z,9.667998
2023-01-06T06:56:14.482Z,9.668002
2023-01-06T06:57:14.480Z,9.668012
2023-01-06T06:58:15.232Z,9.668009
2023-01-06T06:59:14.599Z,9.668037
2023-01-06T07:00:14.484Z,9.668017
2023-01-06T07:01:14.611Z,9.668025
2023-01-06T07:02:14.544Z,9.668048
2023-01-06T07:03:14.401Z,9.668049
2023-01-06T07:04:14.518Z,9.668056
2023-01-06T07:05:14.404Z,9.668024
2023-01-06T07:06:14.384Z,9.668053
2023-01-06T07:07:14.385Z,9.668028
2023-01-06T07:08:15.154Z,9.668022
2023-01-06T07:09:14.384Z,9.668027
2023-01-06T07:10:14.362Z,9.667996
2023-01-06T07:11:14.360Z,9.667996
2023-01-06T07:12:14.352Z,9.667967
2023-01-06T07:13:14.360Z,9.668014
2023-01-06T07:14:14.360Z,9.668016
2023-01-06T07:15:46.359Z,9.668022
2023-01-06T07:16:14.385Z,9.668048
2023-01-06T07:17:14.355Z,9.668031
2023-01-06T07:18:14.315Z,9.668020
2023-01-06T07:19:14.367Z,9.667995
2023-01-06T07:20:14.318Z,9.668011
2023-01-06T07:21:14.287Z,9.668007
2023-01-06T07:22:14.293Z,9.667967
2023-01-06T07:23:14.354Z,9.668002
2023-01-06T07:24:14.244Z,9.668026
2023-01-06T07:25:14.252Z,9.668029
2023-01-06T07:26:14.246Z,9.668052
2023-01-06T07:27:14.233Z,9.667994
2023-01-06T07:28:14.227Z,9.668075
2023-01-06T07:29:14.202Z,9.667974
2023-01-06T07:30:14.250Z,9.668028
2023-01-06T07:31:14.398Z,9.668006
2023-01-06T07:32:14.186Z,9.668063
2023-01-06T07:33:14.213Z,9.667976
2023-01-06T07:34:14.212Z,9.668023
2023-01-06T07:35:14.167Z,9.668040
2023-01-06T07:36:14.157Z,9.668023
2023-01-06T07:37:14.155Z,9.668030
2023-01-06T07:38:14.207Z,9.668043
2023-01-06T07:39:14.162Z,9.668024
2023-01-06T07:40:14.164Z,9.668056
2023-01-06T07:41:14.118Z,9.667999
2023-01-06T07:42:14.112Z,9.668048
2023-01-06T07:43:14.112Z,9.668015
2023-01-06T07:44:14.690Z,9.668034
2023-01-06T07:45:14.116Z,9.668017
2023-01-06T07:46:14.137Z,9.668032
2023-01-06T07:47:14.063Z,9.668022
2023-01-06T07:48:14.073Z,9.668080
2023-01-06T07:49:14.089Z,9.668042
2023-01-06T07:50:14.059Z,9.667984
2023-01-06T07:51:14.030Z,9.668033
2023-01-06T07:52:14.035Z,9.668075
2023-01-06T07:53:14.058Z,9.668016
2023-01-06T07:54:14.017Z,9.668005
2023-01-06T07:55:14.024Z,9.668008
2023-01-06T07:56:14.021Z,9.668052
2023-01-06T07:57:13.984Z,9.668006
2023-01-06T07:58:14.009Z,9.668043
2023-01-06T07:59:13.967Z,9.668040
2023-01-06T08:00:14.014Z,9.668008
2023-01-06T08:01:14.749Z,9.667982
2023-01-06T08:02:14.074Z,9.668026
2023-01-06T08:03:14.982Z,9.668031
2023-01-06T08:04:13.938Z,9.668054
2023-01-06T08:05:13.943Z,9.667995
2023-01-06T08:06:14.015Z,9.668031
2023-01-06T08:07:13.917Z,9.668015
2023-01-06T08:08:13.911Z,9.667983
2023-01-06T08:09:13.929Z,9.668078
2023-01-06T08:10:13.935Z,9.668032
2023-01-06T08:11:14.059Z,9.668126
2023-01-06T08:12:13.874Z,9.668068
2023-01-06T08:13:13.866Z,9.668010
2023-01-06T08:14:14.655Z,9.668003
2023-01-06T08:15:13.851Z,9.668006
2023-01-06T08:16:13.982Z,9.668001
2023-01-06T08:17:13.844Z,9.668016
2023-01-06T08:18:13.834Z,9.668003
2023-01-06T08:19:13.906Z,9.667958
2023-01-06T08:20:45.770Z,9.667955
2023-01-06T08:21:13.842Z,9.667976
2023-01-06T08:22:13.801Z,9.668009
2023-01-06T08:23:13.903Z,9.667974
2023-01-06T08:24:13.784Z,9.667987
2023-01-06T08:25:13.778Z,9.667949
2023-01-06T08:26:13.826Z,9.667951
2023-01-06T08:27:13.778Z,9.667968
2023-01-06T08:28:13.777Z,9.667990
2023-01-06T08:29:13.762Z,9.668009
2023-01-06T08:30:13.881Z,9.668010
2023-01-06T08:31:13.823Z,9.667995
2023-01-06T08:32:13.743Z,9.667933
2023-01-06T08:33:13.737Z,9.667972
2023-01-06T08:34:13.809Z,9.667931
2023-01-06T08:35:13.805Z,9.667963
2023-01-06T08:36:13.692Z,9.667965
2023-01-06T08:37:13.692Z,9.667965
2023-01-06T08:38:13.695Z,9.667969
2023-01-06T08:39:13.769Z,9.667932
2023-01-06T08:40:13.669Z,9.667981
2023-01-06T08:41:13.654Z,9.667960
2023-01-06T08:42:13.642Z,9.667972
2023-01-06T08:43:13.649Z,9.667949
2023-01-06T08:44:13.645Z,9.667971
2023-01-06T08:45:13.705Z,9.667996
2023-01-06T08:46:13.661Z,9.667950
2023-01-06T08:47:13.627Z,9.667950
2023-01-06T08:48:13.617Z,9.667952
2023-01-06T08:49:13.613Z,9.667953
2023-01-06T08:50:13.701Z,9.667946
2023-01-06T08:51:13.563Z,9.667824
2023-01-06T08:52:13.638Z,9.667909
2023-01-06T08:53:13.655Z,9.667738
2023-01-06T08:54:13.555Z,9.667809
2023-01-06T08:55:13.551Z,9.667715
2023-01-06T08:56:13.611Z,9.667701
2023-01-06T08:57:13.544Z,9.667695
2023-01-06T08:58:13.557Z,9.667841
2023-01-06T08:59:13.514Z,9.667916
2023-01-06T09:00:13.504Z,9.667750
2023-01-06T09:01:13.668Z,9.667896
2023-01-06T09:02:13.615Z,9.667891
2023-01-06T09:03:13.497Z,9.667766
2023-01-06T09:04:13.544Z,9.667774
2023-01-06T09:05:13.511Z,9.667830
2023-01-06T09:06:13.468Z,9.667940
2023-01-06T09:07:13.461Z,9.667881
2023-01-06T09:08:13.437Z,9.667882
2023-01-06T09:09:13.556Z,9.667948
2023-01-06T09:10:13.446Z,9.667927
2023-01-06T09:11:14.131Z,9.667938
2023-01-06T09:12:13.426Z,9.667970
2023-01-06T09:13:13.480Z,9.667950
2023-01-06T09:14:13.410Z,9.667927
2023-01-06T09:15:13.419Z,9.667935
2023-01-06T09:16:13.395Z,9.667974
2023-01-06T09:17:13.388Z,9.668011
2023-01-06T09:18:13.400Z,9.667967
2023-01-06T09:19:13.390Z,9.668022
2023-01-06T09:20:13.401Z,9.668010
2023-01-06T09:21:13.383Z,9.667989
2023-01-06T09:22:13.381Z,9.667976
2023-01-06T09:23:13.419Z,9.667987
2023-01-06T09:24:13.424Z,9.667949
2023-01-06T09:25:13.347Z,9.667940
2023-01-06T09:26:13.370Z,9.667929
2023-01-06T09:27:13.339Z,9.667938
2023-01-06T09:28:13.309Z,9.667946
2023-01-06T09:29:13.302Z,9.667968
2023-01-06T09:30:13.372Z,9.667980
2023-01-06T09:31:13.466Z,9.667974
2023-01-06T09:32:13.269Z,9.667974
2023-01-06T09:33:13.311Z,9.667906
2023-01-06T09:34:13.277Z,9.667903
2023-01-06T09:35:13.257Z,9.667977
2023-01-06T09:36:13.237Z,9.667961
2023-01-06T09:37:13.224Z,9.667926
2023-01-06T09:38:13.229Z,9.667929
2023-01-06T09:39:13.245Z,9.667921
2023-01-06T09:40:13.262Z,9.667929
2023-01-06T09:41:13.210Z,9.667875
2023-01-06T09:42:13.214Z,9.667887
2023-01-06T09:43:13.196Z,9.667915
2023-01-06T09:44:13.259Z,9.667872
2023-01-06T09:45:49.141Z,9.667864
2023-01-06T09:46:14.843Z,9.667870
2023-01-06T09:47:45.079Z,9.667902
2023-01-06T09:48:13.153Z,9.667871
2023-01-06T09:49:13.844Z,9.667916
2023-01-06T09:50:13.316Z,9.667908
2023-01-06T09:51:13.179Z,9.667887
2023-01-06T09:52:13.155Z,9.667909
2023-01-06T09:53:13.133Z,9.667920
2023-01-06T09:54:13.115Z,9.667892
2023-01-06T09:55:13.262Z,9.667935
2023-01-06T09:56:13.677Z,9.667911
2023-01-06T09:57:13.142Z,9.667972
2023-01-06T09:58:13.091Z,9.667998
2023-01-06T09:59:13.098Z,9.667934
2023-01-06T10:00:13.107Z,9.667937
2023-01-06T10:01:13.083Z,9.667952
2023-01-06T10:02:13.094Z,9.667952
2023-01-06T10:03:13.027Z,9.667957
2023-01-06T10:04:13.111Z,9.667972
2023-01-06T10:05:13.069Z,9.667970
2023-01-06T10:06:13.082Z,9.667996
2023-01-06T10:07:13.055Z,9.667988
2023-01-06T10:08:13.014Z,9.667968
2023-01-06T10:09:13.145Z,9.667997
2023-01-06T10:10:13.007Z,9.667993
2023-01-06T10:11:13.097Z,9.667962
2023-01-06T10:12:13.019Z,9.667987
2023-01-06T10:13:12.977Z,9.667977
2023-01-06T10:14:13.017Z,9.667973
2023-01-06T10:15:12.940Z,9.667978
2023-01-06T10:16:12.993Z,9.667933
2023-01-06T10:17:12.985Z,9.667979
2023-01-06T10:18:13.077Z,9.668006
2023-01-06T10:19:12.916Z,9.668018
2023-01-06T10:20:12.930Z,9.668023
2023-01-06T10:21:12.945Z,9.668017
2023-01-06T10:22:12.892Z,9.667983
2023-01-06T10:23:12.891Z,9.668009
2023-01-06T10:24:12.880Z,9.668006
2023-01-06T10:25:12.896Z,9.668033
2023-01-06T10:26:12.870Z,9.667994
2023-01-06T10:27:12.938Z,9.667974
2023-01-06T10:28:13.378Z,9.667986
2023-01-06T10:29:12.841Z,9.668019
2023-01-06T10:30:12.865Z,9.668024
2023-01-06T10:31:12.872Z,9.667986
2023-01-06T10:32:12.826Z,9.668011
2023-01-06T10:33:12.784Z,9.668003
2023-01-06T10:34:12.791Z,9.668007
2023-01-06T10:35:12.815Z,9.667951
2023-01-06T10:36:12.804Z,9.667989
2023-01-06T10:37:12.935Z,9.667989
2023-01-06T10:38:12.919Z,9.667972
2023-01-06T10:39:12.819Z,9.668033
2023-01-06T10:40:12.784Z,9.668016
2023-01-06T10:41:12.733Z,9.667954
2023-01-06T10:42:12.747Z,9.668035
2023-01-06T10:43:13.484Z,9.667985
2023-01-06T10:44:12.745Z,9.667950
2023-01-06T10:45:12.708Z,9.667964
2023-01-06T10:46:12.771Z,9.667986
2023-01-06T10:47:12.723Z,9.668050
2023-01-06T10:48:13.404Z,9.668029
2023-01-06T10:49:12.684Z,9.668000
2023-01-06T10:50:12.679Z,9.668056
2023-01-06T10:51:12.662Z,9.668059
2023-01-06T10:52:13.677Z,9.668035
2023-01-06T10:53:12.670Z,9.668036
2023-01-06T10:54:12.647Z,9.668051
2023-01-06T10:55:12.683Z,9.667996
2023-01-06T10:56:12.647Z,9.668019
2023-01-06T10:57:12.665Z,9.668041
2023-01-06T10:58:12.792Z,9.668071
2023-01-06T10:59:12.772Z,9.668051
2023-01-06T11:00:12.651Z,9.667976
2023-01-06T11:01:12.727Z,9.667933
2023-01-06T11:02:12.704Z,9.667939
2023-01-06T11:03:32.284Z,9.667920
2023-01-06T11:04:14.582Z,9.668016
2023-01-06T11:05:12.561Z,9.667993
2023-01-06T11:06:12.579Z,9.668031
2023-01-06T11:07:12.584Z,9.668023
2023-01-06T11:08:44.459Z,9.667966
2023-01-06T11:09:12.582Z,9.667958
2023-01-06T11:10:44.978Z,9.667968
2023-01-06T11:11:26.882Z,9.668045
2023-01-06T11:12:13.506Z,9.668012
2023-01-06T11:13:44.894Z,9.668030
2023-01-06T11:14:12.483Z,9.668033
2023-01-06T11:15:12.580Z,9.668017
2023-01-06T11:16:12.493Z,9.668026
2023-01-06T11:17:13.335Z,9.668067
2023-01-06T11:18:12.835Z,9.668076
2023-01-06T11:19:12.464Z,9.668068
2023-01-06T11:20:12.448Z,9.668079
2023-01-06T11:21:12.471Z,9.668089
2023-01-06T11:22:12.496Z,9.668065
2023-01-06T11:23:12.491Z,9.668022
2023-01-06T11:24:12.454Z,9.667992
2023-01-06T11:25:12.451Z,9.668003
2023-01-06T11:26:12.433Z,9.668007
2023-01-06T11:27:12.450Z,9.667945
2023-01-06T11:28:12.691Z,9.667978
2023-01-06T11:29:12.383Z,9.667979
2023-01-06T11:30:13.449Z,9.668010
2023-01-06T11:31:12.617Z,9.668061
2023-01-06T11:32:12.428Z,9.668003
2023-01-06T11:33:12.348Z,9.667980
2023-01-06T11:34:12.398Z,9.667992
2023-01-06T11:35:12.326Z,9.667974
2023-01-06T11:36:12.509Z,9.668013
2023-01-06T11:37:12.394Z,9.668072
2023-01-06T11:38:12.336Z,9.667978
2023-01-06T11:39:12.297Z,9.667950
2023-01-06T11:40:12.333Z,9.668006
2023-01-06T11:41:12.293Z,9.667984
2023-01-06T11:42:12.280Z,9.667913
2023-01-06T11:43:12.323Z,9.668022
2023-01-06T11:44:12.311Z,9.668032
2023-01-06T11:45:13.294Z,9.668139
2023-01-06T11:46:12.278Z,9.668089
2023-01-06T11:47:12.360Z,9.668041
2023-01-06T11:48:12.239Z,9.668059
2023-01-06T11:49:12.212Z,9.667887
2023-01-06T11:50:12.238Z,9.667882
2023-01-06T11:51:12.229Z,9.667890
2023-01-06T11:52:12.231Z,9.667970
2023-01-06T11:53:12.201Z,9.667923
2023-01-06T11:54:12.425Z,9.668026
2023-01-06T11:55:13.404Z,9.668070
2023-01-06T11:56:13.231Z,9.668109
2023-01-06T11:57:12.226Z,9.668107
2023-01-06T11:58:12.180Z,9.668045
2023-01-06T11:59:12.161Z,9.668071
2023-01-06T12:00:12.188Z,9.668073
2023-01-06T12:01:12.181Z,9.668077
2023-01-06T12:02:12.156Z,9.668103
2023-01-06T12:03:12.293Z,9.668072
2023-01-06T12:04:12.139Z,9.668078
2023-01-06T12:05:12.157Z,9.668048
2023-01-06T12:06:12.133Z,9.668047
2023-01-06T12:07:12.067Z,9.668111
2023-01-06T12:08:12.073Z,9.668129
2023-01-06T12:09:12.135Z,9.668105
2023-01-06T12:10:12.086Z,9.668136
2023-01-06T12:11:12.198Z,9.668097
2023-01-06T12:12:12.062Z,9.668066
2023-01-06T12:13:12.220Z,9.668047
2023-01-06T12:14:23.643Z,9.668056
2023-01-06T12:15:14.043Z,9.668070
2023-01-06T12:16:12.189Z,9.668021
2023-01-06T12:17:12.231Z,9.668032
2023-01-06T12:18:12.112Z,9.668053
2023-01-06T12:19:12.108Z,9.668092
2023-01-06T12:20:13.301Z,9.668079
2023-01-06T12:21:12.986Z,9.668049
2023-01-06T12:22:12.955Z,9.667962
2023-01-06T12:23:11.950Z,9.667980
2023-01-06T12:24:11.957Z,9.668023